2022年5月18日

时间 代码 天气 温度 能见度 乌云 METAR/SPECI
10:30
V
24 °C 10 km+ - 120°   120° 7 kt METAR LFLW 180830Z AUTO 12007KT 080V170 CAVOK 24/15 Q1022
10:00
V
23 °C 10 km+ - 120°   120° 5 kt METAR LFLW 180800Z AUTO 12005KT 070V150 CAVOK 23/14 Q1022
09:30
V
22 °C 10 km+ - 110°   110° 5 kt METAR LFLW 180730Z AUTO 11005KT 070V130 CAVOK 22/15 Q1022
09:00
V
20 °C 10 km+ - 090°   090° 4 kt METAR LFLW 180700Z AUTO 09004KT 060V120 CAVOK 20/14 Q1022
08:30
V
18 °C 10 km+ - 080°   080° 5 kt METAR LFLW 180630Z AUTO 08005KT CAVOK 18/13 Q1022
08:00
V
16 °C 10 km+ - 100°   100° 3 kt METAR LFLW 180600Z AUTO 10003KT CAVOK 16/13 Q1022
07:30
V
15 °C 10 km+ - 100°   100° 3 kt METAR LFLW 180530Z AUTO 10003KT CAVOK 15/12 Q1022
07:00
V
13 °C 10 km+ - 110°   110° 3 kt METAR LFLW 180500Z AUTO 11003KT 080V140 CAVOK 13/11 Q1022
06:30
V
12 °C 10 km+ - 120°   120° 5 kt METAR LFLW 180430Z AUTO 12005KT CAVOK 12/11 Q1022
06:00
V
12 °C 10 km+ - 100°   100° 4 kt METAR LFLW 180400Z AUTO 10004KT CAVOK 12/11 Q1021
05:00
V
12 °C 10 km+ - 090°   090° 4 kt METAR LFLW 180300Z AUTO 09004KT CAVOK 12/11 Q1021
04:30
V
12 °C 10 km+ - 110°   110° 3 kt METAR LFLW 180230Z AUTO 11003KT CAVOK 12/11 Q1021
04:00
V
12 °C 10 km+ - 120°   120° 3 kt METAR LFLW 180200Z AUTO 12003KT CAVOK 12/11 Q1022
03:30
V
13 °C 10 km+ - Var   Var 2 kt METAR LFLW 180130Z AUTO VRB02KT CAVOK 13/11 Q1022
03:00
V
13 °C 10 km+ - 080°   080° 3 kt METAR LFLW 180100Z AUTO 08003KT CAVOK 13/12 Q1022
02:30
V
14 °C 10 km+ - Var   Var 3 kt METAR LFLW 180030Z AUTO VRB03KT CAVOK 14/11 Q1022
02:00
V
14 °C 10 km+ - 040°   040° 1 kt METAR LFLW 180000Z AUTO 04001KT CAVOK 14/12 Q1022
01:30
V
15 °C 10 km+ - 050°   050° 1 kt METAR LFLW 172330Z AUTO 05001KT CAVOK 15/12 Q1022
01:00
V
15 °C 10 km+ - Var   000° 0 kt METAR LFLW 172300Z AUTO 00000KT CAVOK 15/12 Q1022
00:30
V
16 °C 10 km+ - 120°   120° 2 kt METAR LFLW 172230Z AUTO 12002KT CAVOK 16/12 Q1022
00:00
V
16 °C 10 km+ - Var   Var 2 kt METAR LFLW 172200Z AUTO VRB02KT CAVOK 16/12 Q1022

2022年5月17日

时间 代码 天气 温度 能见度 乌云 METAR/SPECI
23:30
V
17 °C 10 km+ - Var   Var 2 kt METAR LFLW 172130Z AUTO VRB02KT CAVOK 17/12 Q1021
23:00
V
18 °C 10 km+ - 100°   100° 3 kt METAR LFLW 172100Z AUTO 10003KT CAVOK 18/12 Q1021
22:30
V
19 °C 10 km+ - 070°   070° 4 kt METAR LFLW 172030Z AUTO 07004KT 020V130 CAVOK 19/13 Q1021
22:00
V
22 °C 10 km+ - 260°   260° 3 kt METAR LFLW 172000Z AUTO 26003KT CAVOK 22/12 Q1021
21:30
V
23 °C 10 km+ - Var   Var 2 kt METAR LFLW 171930Z AUTO VRB02KT CAVOK 23/12 Q1020
21:00
V
24 °C 10 km+ - 310°   310° 3 kt METAR LFLW 171900Z AUTO 31003KT CAVOK 24/12 Q1020
20:30
V
25 °C 10 km+ - 320°   320° 3 kt METAR LFLW 171830Z AUTO 32003KT 280V340 CAVOK 25/12 Q1020
20:00
V
26 °C 10 km+ - 340°   340° 3 kt METAR LFLW 171800Z AUTO 34003KT CAVOK 26/14 Q1019
19:30
V
27 °C 10 km+ - 340°   340° 4 kt METAR LFLW 171730Z AUTO 34004KT CAVOK 27/13 Q1019
19:00
V
27 °C 10 km+ - 330°   330° 5 kt METAR LFLW 171700Z AUTO 33005KT CAVOK 27/12 Q1019
18:30
V
27 °C 10 km+ - 320°   320° 5 kt METAR LFLW 171630Z AUTO 32005KT 270V360 CAVOK 27/11 Q1019
18:00
V
28 °C 10 km+ - 300°   300° 6 kt METAR LFLW 171600Z AUTO 30006KT 260V350 CAVOK 28/10 Q1019
17:30
V
28 °C 10 km+ - 270°   270° 3 kt METAR LFLW 171530Z AUTO 27003KT 190V350 CAVOK 28/11 Q1019
17:00
V
27 °C 10 km+ - 350°   350° 5 kt METAR LFLW 171500Z AUTO 35005KT CAVOK 27/12 Q1019
16:30
V
27 °C 10 km+ - 040°   040° 3 kt METAR LFLW 171430Z AUTO 04003KT 320V100 CAVOK 27/12 Q1019 NOSIG
16:00
V
26 °C 10 km+ - 320°   320° 4 kt METAR LFLW 171400Z AUTO 32004KT 230V360 CAVOK 26/11 Q1019 NOSIG
15:30
V
28 °C 10 km+ - Var   Var 4 kt METAR LFLW 171330Z AUTO VRB04KT CAVOK 28/12 Q1019 NOSIG
15:00
V
28 °C 10 km+ - 290°   290° 5 kt METAR LFLW 171300Z AUTO 29005KT 230V010 CAVOK 28/13 Q1020 NOSIG
14:30
V
28 °C 10 km+ - 200°   200° 3 kt METAR LFLW 171230Z AUTO 20003KT 110V250 CAVOK 28/11 Q1020 NOSIG
14:00
V
27 °C 10 km+ - Var   Var 4 kt METAR LFLW 171200Z AUTO VRB04KT CAVOK 27/12 Q1020 NOSIG
13:30
V
27 °C 10 km+ - 160°   160° 4 kt METAR LFLW 171130Z AUTO 16004KT 070V220 CAVOK 27/09 Q1020 NOSIG
13:00
V
27 °C 10 km+ - Var   Var 3 kt METAR LFLW 171100Z AUTO VRB03KT CAVOK 27/09 Q1020 NOSIG
12:30
V
26 °C 10 km+ - Var   Var 2 kt METAR LFLW 171030Z AUTO VRB02KT CAVOK 26/12 Q1020 NOSIG
12:00
V
26 °C 10 km+ - Var   Var 3 kt METAR LFLW 171000Z AUTO VRB03KT CAVOK 26/11 Q1021 NOSIG
11:30
V
25 °C 10 km+ - Var   Var 3 kt METAR LFLW 170930Z AUTO VRB03KT CAVOK 25/11 Q1021 NOSIG
11:00
V
25 °C 10 km+ - Var   Var 3 kt METAR LFLW 170900Z AUTO VRB03KT CAVOK 25/14 Q1021 NOSIG
10:30
V
23 °C 10 km+ - 100°   100° 3 kt METAR LFLW 170830Z AUTO 10003KT 070V140 CAVOK 23/13 Q1021 NOSIG
10:00
V
22 °C 10 km+ - Var   Var 3 kt METAR LFLW 170800Z AUTO VRB03KT CAVOK 22/14 Q1021 NOSIG
09:30
V
20 °C 10 km+ - 090°   090° 4 kt METAR LFLW 170730Z AUTO 09004KT CAVOK 20/12 Q1021 NOSIG
09:00
V
18 °C 10 km+ - 090°   090° 3 kt METAR LFLW 170700Z AUTO 09003KT 060V130 CAVOK 18/11 Q1021 NOSIG
08:30
V
16 °C 10 km+ - 090°   090° 5 kt METAR LFLW 170630Z AUTO 09005KT CAVOK 16/10 Q1021 NOSIG
08:00
V
14 °C 10 km+ - 080°   080° 6 kt METAR LFLW 170600Z AUTO 08006KT CAVOK 14/10 Q1021 NOSIG
07:30
V
12 °C 10 km+ - 090°   090° 6 kt METAR LFLW 170530Z AUTO 09006KT CAVOK 12/09 Q1021 NOSIG
07:00
V
10 °C 10 km+ - 100°   100° 3 kt METAR LFLW 170500Z AUTO 10003KT CAVOK 10/09 Q1021
06:30
V
9 °C 10 km+ - 120°   120° 4 kt METAR LFLW 170430Z AUTO 12004KT CAVOK 09/08 Q1021
06:00
V
9 °C 10 km+ - 110°   110° 3 kt METAR LFLW 170400Z AUTO 11003KT CAVOK 09/09 Q1021
05:00
V
10 °C 10 km+ - 120°   120° 4 kt METAR LFLW 170300Z AUTO 12004KT CAVOK 10/09 Q1021
04:30
V
10 °C 10 km+ - 130°   130° 2 kt METAR LFLW 170230Z AUTO 13002KT CAVOK 10/09 Q1021
04:00
V
10 °C 10 km+ - Var   Var 3 kt METAR LFLW 170200Z AUTO VRB03KT CAVOK 10/10 Q1021
03:30
V
10 °C 10 km+ - Var   Var 3 kt METAR LFLW 170130Z AUTO VRB03KT CAVOK 10/09 Q1021
03:00
V
11 °C 10 km+ - 090°   090° 2 kt METAR LFLW 170100Z AUTO 09002KT CAVOK 11/09 Q1021
02:30
V
11 °C 10 km+ - 120°   120° 3 kt METAR LFLW 170030Z AUTO 12003KT CAVOK 11/10 Q1022
02:00
V
11 °C 10 km+ - 100°   100° 3 kt METAR LFLW 170000Z AUTO 10003KT CAVOK 11/10 Q1022
01:30
V
11 °C 10 km+ - 100°   100° 3 kt METAR LFLW 162330Z AUTO 10003KT CAVOK 11/10 Q1022
01:00
V
12 °C 10 km+ - 100°   100° 3 kt METAR LFLW 162300Z AUTO 10003KT CAVOK 12/11 Q1022
00:30
V
12 °C 10 km+ - 100°   100° 3 kt METAR LFLW 162230Z AUTO 10003KT CAVOK 12/10 Q1022
00:00
V
13 °C 10 km+ - 120°   120° 3 kt METAR LFLW 162200Z AUTO 12003KT CAVOK 13/11 Q1022

2022年5月16日

时间 代码 天气 温度 能见度 乌云 METAR/SPECI
23:30
V
14 °C 10 km+ - 100°   100° 3 kt METAR LFLW 162130Z AUTO 10003KT CAVOK 14/11 Q1022
23:00
V
14 °C 10 km+ - 130°   130° 2 kt METAR LFLW 162100Z AUTO 13002KT CAVOK 14/12 Q1022
22:30
V
16 °C 10 km+ - 130°   130° 3 kt METAR LFLW 162030Z AUTO 13003KT CAVOK 16/12 Q1021
22:00
V
17 °C 10 km+ - 100°   100° 2 kt METAR LFLW 162000Z AUTO 10002KT CAVOK 17/11 Q1021
21:30
V
19 °C 10 km+ - Var   000° 0 kt METAR LFLW 161930Z AUTO 00000KT CAVOK 19/12 Q1021
21:00
V
21 °C 10 km+ - 330°   330° 2 kt METAR LFLW 161900Z AUTO 33002KT CAVOK 21/11 Q1021
20:30
V
22 °C 10 km+ - Var   Var 3 kt METAR LFLW 161830Z AUTO VRB03KT CAVOK 22/12 Q1021 NOSIG
20:00
V
23 °C 10 km+ - 270°   270° 4 kt METAR LFLW 161800Z AUTO 27004KT 230V300 CAVOK 23/11 Q1021 NOSIG
19:30
V
23 °C 10 km+ - 270°   270° 5 kt METAR LFLW 161730Z AUTO 27005KT 230V310 CAVOK 23/11 Q1021 NOSIG
19:00
V
24 °C 10 km+ - 250°   250° 4 kt METAR LFLW 161700Z AUTO 25004KT CAVOK 24/12 Q1021 NOSIG
18:30
V
24 °C 10 km+ - 230°   230° 4 kt METAR LFLW 161630Z AUTO 23004KT 160V290 CAVOK 24/12 Q1020 NOSIG
18:00
V
24 °C 10 km+ - 230°   230° 4 kt METAR LFLW 161600Z AUTO 23004KT 180V260 CAVOK 24/10 Q1021 NOSIG
17:30
V
25 °C 10 km+ - 300°   300° 4 kt METAR LFLW 161530Z AUTO 30004KT 240V010 CAVOK 25/11 Q1021 NOSIG
17:00
V
25 °C 10 km+ - 250°   250° 6 kt METAR LFLW 161500Z AUTO 25006KT 210V310 CAVOK 25/11 Q1021 NOSIG
16:30
V
25 °C 10 km+ - 260°   260° 5 kt METAR LFLW 161430Z AUTO 26005KT 210V310 CAVOK 25/10 Q1021 NOSIG
16:00
V
25 °C 10 km+ - 230°   230° 6 kt METAR LFLW 161400Z AUTO 23006KT 180V270 CAVOK 25/11 Q1021 NOSIG
15:30
V
25 °C 10 km+ - Var   Var 4 kt METAR LFLW 161330Z AUTO VRB04KT CAVOK 25/09 Q1021 NOSIG
15:00
V
25 °C 10 km+ - 260°   260° 5 kt METAR LFLW 161300Z AUTO 26005KT 190V320 CAVOK 25/10 Q1021 NOSIG
14:30
V
25 °C 10 km+ - 240°   240° 5 kt METAR LFLW 161230Z AUTO 24005KT 180V290 9999 SCT056 25/11 Q1021 NOSIG
14:00
V
24 °C 10 km+ - Var   Var 4 kt METAR LFLW 161200Z AUTO VRB04KT CAVOK 24/10 Q1021 NOSIG
13:30
V
24 °C 10 km+ - Var   Var 4 kt METAR LFLW 161130Z AUTO VRB04KT CAVOK 24/10 Q1021 NOSIG
13:00
V
23 °C 10 km+ - Var   Var 3 kt METAR LFLW 161100Z AUTO VRB03KT CAVOK 23/10 Q1021 NOSIG
12:30
V
23 °C 10 km+ - Var   Var 2 kt METAR LFLW 161030Z AUTO VRB02KT CAVOK 23/10 Q1021 NOSIG
12:00
V
23 °C 10 km+ - Var   Var 2 kt METAR LFLW 161000Z AUTO VRB02KT CAVOK 23/10 Q1021 NOSIG
11:30
V
22 °C 10 km+ - Var   Var 3 kt METAR LFLW 160930Z AUTO VRB03KT CAVOK 22/10 Q1021 NOSIG
11:00
V
21 °C 10 km+ - Var   Var 3 kt METAR LFLW 160900Z AUTO VRB03KT CAVOK 21/10 Q1021 NOSIG
较旧的数据

下载我们的应用程序

在您的手机和平板电脑上轻松访问所有航空天气。
有许多网站上没有的功能,如离线支持和个人机场列表。

Studio Eveline

Benalmádena
España